Sammy Cenac — WDH7565 — position and weather

sailwx.info

Track history (hours):
 
Tides and Currents Weather Stations Pressure Air Temp Water Temp Dewpoint Dewpoint Depression Visibility Wind Speed Wind Dir Waves Ship Positions

Sammy Cenac

Owner: Cenac Marine Services, Houma, LA. More information available from US FCC via Universal Licensing System and Coast Guard Vessel Documentation Center.

Last reported at 2017-Sep-24 21:29 UTC. Time now 2017-Oct-19 16:18 UTC.
Position N 29°33' W 090°25'.
Warning: this ship's position is 24 days out of date.

Length 22 m; draft 3.2 m.

Type: Tug. MMSI: 367649360.

Date/timePositionNaut miles runAvg speedWind from/ knotsBaromVisibWave heightAir tempDewpointWater temp
2017-Sep-24 21:29N 29°33' W 090°25'3 5.0
2017-Sep-24 20:52N 29°34' W 090°28'2 5.0
2017-Sep-24 20:30N 29°34' W 090°31'2 4.9
2017-Sep-24 20:00N 29°34' W 090°33'2 4.8
2017-Sep-24 19:30N 29°35' W 090°36'2 4.4
2017-Sep-24 19:00N 29°35' W 090°38'2 3.9
2017-Sep-24 18:30N 29°36' W 090°40'2 3.9
2017-Sep-24 18:00N 29°37' W 090°42'2 3.6
2017-Sep-24 17:30N 29°35' W 090°43'2 3.4
2017-Sep-24 17:00N 29°34' W 090°45'2 4.8
2017-Sep-24 16:30N 29°32' W 090°46'3 5.8
2017-Sep-24 16:00N 29°32' W 090°50'3 5.4
2017-Sep-24 15:30N 29°32' W 090°53'58 4.3
2017-Sep-24 02:10N 29°51' W 091°56'1 4.9
2017-Sep-24 02:00N 29°50' W 091°57'3 5.2
2017-Sep-24 01:30N 29°50' W 091°60'3 5.3
2017-Sep-24 01:00N 29°49' W 092°03'3 5.6
2017-Sep-24 00:30N 29°48' W 092°06'3 5.5
2017-Sep-24 00:00N 29°47' W 092°09'2 4.3
2017-Sep-23 23:30N 29°47' W 092°11'2 3.6
2017-Sep-23 23:00N 29°47' W 092°13'1 2.2
2017-Sep-23 22:30N 29°48' W 092°14'3 5.0
2017-Sep-23 22:00N 29°49' W 092°17'3 4.0
2017-Sep-23 21:12N 29°51' W 092°20'6 0.1
2017-Sep-22 02:00N 29°48' W 092°14'3 6.0
2017-Sep-22 01:30N 29°47' W 092°10'3 6.1
2017-Sep-22 01:00N 29°47' W 092°07'3 6.6
2017-Sep-22 00:30N 29°49' W 092°04'3 6.8
2017-Sep-22 00:00N 29°50' W 091°60'58 5.7
2017-Sep-21 13:53N 29°34' W 090°56'4 6.6
2017-Sep-21 13:18N 29°32' W 090°52'2 6.7
2017-Sep-21 13:00N 29°32' W 090°50'3 6.6
2017-Sep-21 12:30N 29°32' W 090°46'3 5.4
2017-Sep-21 12:00N 29°34' W 090°44'2 4.8
2017-Sep-21 11:30N 29°36' W 090°43'2 4.0
2017-Sep-21 11:00N 29°36' W 090°40'3 6.0
2017-Sep-21 10:30N 29°35' W 090°37'3 5.6
2017-Sep-21 09:59N 29°34' W 090°34'3 6.0
2017-Sep-21 09:30N 29°34' W 090°31'  
2017-Sep-17 07:56N 29°33' W 090°25'1 1.3
2017-Sep-17 07:16N 29°33' W 090°26'0 0.0
2017-Sep-17 06:45N 29°33' W 090°26'0 0.4
2017-Sep-17 06:14N 29°33' W 090°26'1 4.2
2017-Sep-17 05:58N 29°33' W 090°27'2 5.3
2017-Sep-17 05:30N 29°34' W 090°30'3 5.1
2017-Sep-17 05:00N 29°34' W 090°33'2 4.7
2017-Sep-17 04:30N 29°35' W 090°36'2 4.3
2017-Sep-17 04:00N 29°35' W 090°38'2 4.5
2017-Sep-17 03:30N 29°36' W 090°40'2 3.9
2017-Sep-17 03:00N 29°37' W 090°42'2 4.1
2017-Sep-17 02:30N 29°35' W 090°43'2 3.6
2017-Sep-17 02:00N 29°34' W 090°45'1 2.6
2017-Sep-17 01:30N 29°33' W 090°46'0 0.0
2017-Sep-17 01:00N 29°33' W 090°46'0 0.9
2017-Sep-17 00:30N 29°32' W 090°46'3 5.9
2017-Sep-17 00:00N 29°32' W 090°49'3 5.8
2017-Sep-16 23:27N 29°32' W 090°53'3 6.1
2017-Sep-16 22:59N 29°34' W 090°56'57 3.4
2017-Sep-16 05:51N 29°50' W 091°59'2 4.5
2017-Sep-16 05:30N 29°49' W 092°01'2 4.8
2017-Sep-16 05:00N 29°49' W 092°04'2 4.8
2017-Sep-16 04:30N 29°48' W 092°06'2 4.9
2017-Sep-16 04:00N 29°47' W 092°09'2 3.0
2017-Sep-16 03:30N 29°47' W 092°10'3 5.2
2017-Sep-16 03:00N 29°47' W 092°13'3 5.0
2017-Sep-16 02:30N 29°48' W 092°16'3 5.2
2017-Sep-16 02:00N 29°50' W 092°18'38 4.0
2017-Sep-15 16:29N 29°56' W 093°02'2 4.6
2017-Sep-15 16:00N 29°56' W 093°04'2 4.4
2017-Sep-15 15:30N 29°56' W 093°07'2 4.6
2017-Sep-15 15:00N 29°56' W 093°09'2 4.7
2017-Sep-15 14:30N 29°58' W 093°11'2 4.8
2017-Sep-15 14:00N 29°60' W 093°13'2 4.3
2017-Sep-15 13:30N 30°02' W 093°14'2 4.1
2017-Sep-15 13:00N 30°03' W 093°16'2 4.9
2017-Sep-15 12:30N 30°05' W 093°17'1 1.6
2017-Sep-15 12:00N 30°06' W 093°18'0 0.8
2017-Sep-15 11:30N 30°06' W 093°18'1 2.0
2017-Sep-15 11:00N 30°06' W 093°19'2 3.4
2017-Sep-15 10:30N 30°04' W 093°21'1 2.6
2017-Sep-15 10:00N 30°04' W 093°22'2 3.1
2017-Sep-15 09:30N 30°04' W 093°24'2 5.0
2017-Sep-15 09:00N 30°04' W 093°26'3 5.2
2017-Sep-15 08:30N 30°04' W 093°29'3 5.3
2017-Sep-15 08:00N 30°04' W 093°32'3 5.4
2017-Sep-15 07:30N 30°04' W 093°36'3 5.4
2017-Sep-15 06:59N 30°04' W 093°39'3 5.5
2017-Sep-15 06:26N 30°03' W 093°42'  
Track history (hours):
 
Tides and Currents Weather Stations Pressure Air Temp Water Temp Dewpoint Dewpoint Depression Visibility Wind Speed Wind Dir Waves Ship Positions

Sammy Cenac

Owner: Cenac Marine Services, Houma, LA. More information available from US FCC via Universal Licensing System and Coast Guard Vessel Documentation Center.

Last reported at 2017-Sep-24 21:29 UTC. Time now 2017-Oct-19 16:18 UTC.
Position N 29°33' W 090°25'.
Warning: this ship's position is 24 days out of date.

Length 22 m; draft 3.2 m.

Type: Tug. MMSI: 367649360.

Date/timePositionNaut miles runAvg speedWind from/ knotsBaromVisibWave heightAir tempDewpointWater temp
2017-Sep-24 21:29N 29°33' W 090°25'3 5.0
2017-Sep-24 20:52N 29°34' W 090°28'2 5.0
2017-Sep-24 20:30N 29°34' W 090°31'2 4.9
2017-Sep-24 20:00N 29°34' W 090°33'2 4.8
2017-Sep-24 19:30N 29°35' W 090°36'2 4.4
2017-Sep-24 19:00N 29°35' W 090°38'2 3.9
2017-Sep-24 18:30N 29°36' W 090°40'2 3.9
2017-Sep-24 18:00N 29°37' W 090°42'2 3.6
2017-Sep-24 17:30N 29°35' W 090°43'2 3.4
2017-Sep-24 17:00N 29°34' W 090°45'2 4.8
2017-Sep-24 16:30N 29°32' W 090°46'3 5.8
2017-Sep-24 16:00N 29°32' W 090°50'3 5.4
2017-Sep-24 15:30N 29°32' W 090°53'58 4.3
2017-Sep-24 02:10N 29°51' W 091°56'1 4.9
2017-Sep-24 02:00N 29°50' W 091°57'3 5.2
2017-Sep-24 01:30N 29°50' W 091°60'3 5.3
2017-Sep-24 01:00N 29°49' W 092°03'3 5.6
2017-Sep-24 00:30N 29°48' W 092°06'3 5.5
2017-Sep-24 00:00N 29°47' W 092°09'2 4.3
2017-Sep-23 23:30N 29°47' W 092°11'2 3.6
2017-Sep-23 23:00N 29°47' W 092°13'1 2.2
2017-Sep-23 22:30N 29°48' W 092°14'3 5.0
2017-Sep-23 22:00N 29°49' W 092°17'3 4.0
2017-Sep-23 21:12N 29°51' W 092°20'6 0.1
2017-Sep-22 02:00N 29°48' W 092°14'3 6.0
2017-Sep-22 01:30N 29°47' W 092°10'3 6.1
2017-Sep-22 01:00N 29°47' W 092°07'3 6.6
2017-Sep-22 00:30N 29°49' W 092°04'3 6.8
2017-Sep-22 00:00N 29°50' W 091°60'58 5.7
2017-Sep-21 13:53N 29°34' W 090°56'4 6.6
2017-Sep-21 13:18N 29°32' W 090°52'2 6.7
2017-Sep-21 13:00N 29°32' W 090°50'3 6.6
2017-Sep-21 12:30N 29°32' W 090°46'3 5.4
2017-Sep-21 12:00N 29°34' W 090°44'2 4.8
2017-Sep-21 11:30N 29°36' W 090°43'2 4.0
2017-Sep-21 11:00N 29°36' W 090°40'3 6.0
2017-Sep-21 10:30N 29°35' W 090°37'3 5.6
2017-Sep-21 09:59N 29°34' W 090°34'3 6.0
2017-Sep-21 09:30N 29°34' W 090°31'  
2017-Sep-17 07:56N 29°33' W 090°25'1 1.3
2017-Sep-17 07:16N 29°33' W 090°26'0 0.0
2017-Sep-17 06:45N 29°33' W 090°26'0 0.4
2017-Sep-17 06:14N 29°33' W 090°26'1 4.2
2017-Sep-17 05:58N 29°33' W 090°27'2 5.3
2017-Sep-17 05:30N 29°34' W 090°30'3 5.1
2017-Sep-17 05:00N 29°34' W 090°33'2 4.7
2017-Sep-17 04:30N 29°35' W 090°36'2 4.3
2017-Sep-17 04:00N 29°35' W 090°38'2 4.5
2017-Sep-17 03:30N 29°36' W 090°40'2 3.9
2017-Sep-17 03:00N 29°37' W 090°42'2 4.1
2017-Sep-17 02:30N 29°35' W 090°43'2 3.6
2017-Sep-17 02:00N 29°34' W 090°45'1 2.6
2017-Sep-17 01:30N 29°33' W 090°46'0 0.0
2017-Sep-17 01:00N 29°33' W 090°46'0 0.9
2017-Sep-17 00:30N 29°32' W 090°46'3 5.9
2017-Sep-17 00:00N 29°32' W 090°49'3 5.8
2017-Sep-16 23:27N 29°32' W 090°53'3 6.1
2017-Sep-16 22:59N 29°34' W 090°56'57 3.4
2017-Sep-16 05:51N 29°50' W 091°59'2 4.5
2017-Sep-16 05:30N 29°49' W 092°01'2 4.8
2017-Sep-16 05:00N 29°49' W 092°04'2 4.8
2017-Sep-16 04:30N 29°48' W 092°06'2 4.9
2017-Sep-16 04:00N 29°47' W 092°09'2 3.0
2017-Sep-16 03:30N 29°47' W 092°10'3 5.2
2017-Sep-16 03:00N 29°47' W 092°13'3 5.0
2017-Sep-16 02:30N 29°48' W 092°16'3 5.2
2017-Sep-16 02:00N 29°50' W 092°18'38 4.0
2017-Sep-15 16:29N 29°56' W 093°02'2 4.6
2017-Sep-15 16:00N 29°56' W 093°04'2 4.4
2017-Sep-15 15:30N 29°56' W 093°07'2 4.6
2017-Sep-15 15:00N 29°56' W 093°09'2 4.7
2017-Sep-15 14:30N 29°58' W 093°11'2 4.8
2017-Sep-15 14:00N 29°60' W 093°13'2 4.3
2017-Sep-15 13:30N 30°02' W 093°14'2 4.1
2017-Sep-15 13:00N 30°03' W 093°16'2 4.9
2017-Sep-15 12:30N 30°05' W 093°17'1 1.6
2017-Sep-15 12:00N 30°06' W 093°18'0 0.8
2017-Sep-15 11:30N 30°06' W 093°18'1 2.0
2017-Sep-15 11:00N 30°06' W 093°19'2 3.4
2017-Sep-15 10:30N 30°04' W 093°21'1 2.6
2017-Sep-15 10:00N 30°04' W 093°22'2 3.1
2017-Sep-15 09:30N 30°04' W 093°24'2 5.0
2017-Sep-15 09:00N 30°04' W 093°26'3 5.2
2017-Sep-15 08:30N 30°04' W 093°29'3 5.3
2017-Sep-15 08:00N 30°04' W 093°32'3 5.4
2017-Sep-15 07:30N 30°04' W 093°36'3 5.4
2017-Sep-15 06:59N 30°04' W 093°39'3 5.5
2017-Sep-15 06:26N 30°03' W 093°42'  

Dump ship's entire track history